createdAt,value
2023-04-15T00:01:19.272Z,6.10
2023-04-15T00:03:48.979Z,6.10
2023-04-15T00:06:17.906Z,6.10
2023-04-15T00:08:46.269Z,6.10
2023-04-15T00:11:15.161Z,6.10
2023-04-15T00:13:46.988Z,6.10
2023-04-15T00:16:17.047Z,6.00
2023-04-15T00:18:46.039Z,6.00
2023-04-15T00:21:14.288Z,6.00
2023-04-15T00:23:42.591Z,6.00
2023-04-15T00:26:11.088Z,6.00
2023-04-15T00:28:42.678Z,6.00
2023-04-15T00:31:11.180Z,6.00
2023-04-15T00:33:41.386Z,6.00
2023-04-15T00:36:10.025Z,6.00
2023-04-15T00:38:40.311Z,5.90
2023-04-15T00:41:09.207Z,5.90
2023-04-15T00:43:38.347Z,5.90
2023-04-15T00:46:07.702Z,5.90
2023-04-15T00:48:36.456Z,5.90
2023-04-15T00:51:07.205Z,5.90
2023-04-15T00:53:35.508Z,5.90
2023-04-15T00:56:03.856Z,5.90
2023-04-15T00:58:32.204Z,5.90
2023-04-15T01:01:01.189Z,5.90
2023-04-15T01:03:31.242Z,5.90
2023-04-15T01:06:01.557Z,5.90
2023-04-15T01:08:34.170Z,5.90
2023-04-15T01:11:04.696Z,6.00
2023-04-15T01:13:35.226Z,5.90
2023-04-15T01:16:04.189Z,5.90
2023-04-15T01:18:32.840Z,5.90
2023-04-15T01:21:03.736Z,5.90
2023-04-15T01:23:34.179Z,5.90
2023-04-15T01:26:05.180Z,5.90
2023-04-15T01:28:33.601Z,5.90
2023-04-15T01:31:09.313Z,5.90
2023-04-15T01:33:38.304Z,5.90
2023-04-15T01:36:10.126Z,6.00
2023-04-15T01:38:39.096Z,6.00
2023-04-15T01:41:09.003Z,5.90
2023-04-15T01:43:37.817Z,5.90
2023-04-15T01:46:06.415Z,5.90
2023-04-15T01:48:34.807Z,5.90
2023-04-15T01:51:03.277Z,5.90
2023-04-15T01:53:31.684Z,5.90
2023-04-15T01:56:00.082Z,5.90
2023-04-15T01:58:29.827Z,5.90
2023-04-15T02:00:58.268Z,5.90
2023-04-15T02:03:26.905Z,5.90
2023-04-15T02:05:55.267Z,5.90
2023-04-15T02:08:23.744Z,5.90
2023-04-15T02:10:52.318Z,5.90
2023-04-15T02:13:20.686Z,5.90
2023-04-15T02:15:52.658Z,5.90
2023-04-15T02:18:20.904Z,5.90
2023-04-15T02:20:49.659Z,5.90
2023-04-15T02:23:18.033Z,6.00
2023-04-15T02:25:54.022Z,6.00
2023-04-15T02:28:22.831Z,6.00
2023-04-15T02:30:53.690Z,6.00
2023-04-15T02:33:23.061Z,6.00
2023-04-15T02:35:51.584Z,6.00
2023-04-15T02:38:20.017Z,6.00
2023-04-15T02:40:49.775Z,6.00
2023-04-15T02:43:18.399Z,6.00
2023-04-15T02:45:47.781Z,6.00
2023-04-15T02:48:19.470Z,6.10
2023-04-15T02:50:48.311Z,6.10
2023-04-15T02:53:17.594Z,6.10
2023-04-15T02:55:46.249Z,6.20
2023-04-15T02:58:14.562Z,6.20
2023-04-15T03:00:42.934Z,6.20
2023-04-15T03:03:11.416Z,6.20
2023-04-15T03:05:41.286Z,6.20
2023-04-15T03:08:09.736Z,6.20
2023-04-15T03:10:38.060Z,6.30
2023-04-15T03:13:06.565Z,6.20
2023-04-15T03:15:34.892Z,6.30
2023-04-15T03:18:03.356Z,6.30
2023-04-15T03:23:02.264Z,6.20
2023-04-15T03:25:30.605Z,6.20
2023-04-15T03:27:58.852Z,6.20
2023-04-15T03:30:27.252Z,6.20
2023-04-15T03:32:55.505Z,6.30
2023-04-15T03:35:23.926Z,6.30
2023-04-15T03:37:52.361Z,6.30
2023-04-15T03:40:23.244Z,6.30
2023-04-15T03:42:51.490Z,6.30
2023-04-15T03:45:19.882Z,6.30
2023-04-15T03:47:48.445Z,6.30
2023-04-15T03:50:16.826Z,6.30
2023-04-15T03:52:46.215Z,6.30
2023-04-15T03:55:14.525Z,6.30
2023-04-15T03:57:44.140Z,6.30
2023-04-15T04:00:12.921Z,6.30
2023-04-15T04:02:41.709Z,6.30
2023-04-15T04:05:10.938Z,6.30
2023-04-15T04:07:39.348Z,6.30
2023-04-15T04:10:08.715Z,6.30
2023-04-15T04:12:37.044Z,6.20
2023-04-15T04:15:08.182Z,6.20
2023-04-15T04:17:36.826Z,6.20
2023-04-15T04:20:05.843Z,6.20
2023-04-15T04:22:38.316Z,6.10
2023-04-15T04:25:08.709Z,6.20
2023-04-15T04:27:37.240Z,6.20
2023-04-15T04:30:08.433Z,6.20
2023-04-15T04:32:36.959Z,6.20
2023-04-15T04:35:05.661Z,6.20
2023-04-15T04:37:33.992Z,6.20
2023-04-15T04:40:02.358Z,6.10
2023-04-15T04:42:31.579Z,6.10
2023-04-15T04:44:59.828Z,6.10
2023-04-15T04:47:30.269Z,6.10
2023-04-15T04:49:58.610Z,6.20
2023-04-15T04:52:27.001Z,6.10
2023-04-15T04:54:55.630Z,6.20
2023-04-15T04:57:24.047Z,6.20
2023-04-15T04:59:52.574Z,6.20
2023-04-15T05:02:21.507Z,6.20
2023-04-15T05:04:54.568Z,6.20
2023-04-15T05:07:22.986Z,6.20
2023-04-15T05:09:51.643Z,6.10
2023-04-15T05:12:19.908Z,6.10
2023-04-15T05:14:48.206Z,6.10
2023-04-15T05:17:16.491Z,6.10
2023-04-15T05:19:44.736Z,6.10
2023-04-15T05:22:14.533Z,6.10
2023-04-15T05:24:42.808Z,6.10
2023-04-15T05:27:11.902Z,6.10
2023-04-15T05:29:40.230Z,6.00
2023-04-15T05:32:08.709Z,6.00
2023-04-15T05:34:37.336Z,5.90
2023-04-15T05:37:06.077Z,5.90
2023-04-15T05:39:36.157Z,5.90
2023-04-15T05:42:06.154Z,6.00
2023-04-15T05:44:34.566Z,6.00
2023-04-15T05:47:03.677Z,6.00
2023-04-15T05:49:32.055Z,6.00
2023-04-15T05:52:00.822Z,6.10
2023-04-15T05:54:29.064Z,6.10
2023-04-15T05:57:01.091Z,6.00
2023-04-15T05:59:29.574Z,6.10
2023-04-15T06:01:58.186Z,6.10
2023-04-15T06:04:26.740Z,6.10
2023-04-15T06:06:55.260Z,6.00
2023-04-15T06:09:27.649Z,6.00
2023-04-15T06:11:59.462Z,5.90
2023-04-15T06:14:29.454Z,5.80
2023-04-15T06:17:04.612Z,5.70
2023-04-15T06:19:36.872Z,5.70
2023-04-15T06:22:07.329Z,5.70
2023-04-15T06:24:37.175Z,5.70
2023-04-15T06:27:05.655Z,5.70
2023-04-15T06:29:35.670Z,5.70
2023-04-15T06:32:04.060Z,5.70
2023-04-15T06:34:32.477Z,5.70
2023-04-15T06:37:01.079Z,5.70
2023-04-15T06:39:29.869Z,5.70
2023-04-15T06:41:58.740Z,5.70
2023-04-15T06:44:27.177Z,5.80
2023-04-15T06:46:57.154Z,5.80
2023-04-15T06:49:25.738Z,5.80
2023-04-15T06:51:54.161Z,5.90
2023-04-15T06:54:22.957Z,5.90
2023-04-15T06:56:57.912Z,5.90
2023-04-15T06:59:27.451Z,6.00
2023-04-15T07:01:57.489Z,6.00
2023-04-15T07:04:26.471Z,6.00
2023-04-15T07:06:58.464Z,6.10
2023-04-15T07:09:27.624Z,6.00
2023-04-15T07:11:55.999Z,6.00
2023-04-15T07:14:24.545Z,6.00
2023-04-15T07:16:58.400Z,6.10
2023-04-15T07:19:28.455Z,6.20
2023-04-15T07:21:57.182Z,6.20
2023-04-15T07:24:27.096Z,6.20
2023-04-15T07:26:57.181Z,6.20
2023-04-15T07:29:26.401Z,6.20
2023-04-15T07:31:54.868Z,6.20
2023-04-15T07:34:23.207Z,6.30
2023-04-15T07:36:52.970Z,6.40
2023-04-15T07:39:21.289Z,6.50
2023-04-15T07:41:50.221Z,6.60
2023-04-15T07:44:18.480Z,6.70
2023-04-15T07:46:46.761Z,6.80
2023-04-15T07:49:16.007Z,6.70
2023-04-15T07:51:44.461Z,6.80
2023-04-15T07:54:17.481Z,6.80
2023-04-15T07:56:45.901Z,6.90
2023-04-15T07:59:15.527Z,6.80
2023-04-15T08:01:45.133Z,7.00
2023-04-15T08:04:13.761Z,7.00
2023-04-15T08:06:42.266Z,6.90
2023-04-15T08:09:11.140Z,7.00
2023-04-15T08:11:42.266Z,7.00
2023-04-15T08:14:10.560Z,7.10
2023-04-15T08:16:38.863Z,7.20
2023-04-15T08:19:08.069Z,7.40
2023-04-15T08:21:36.619Z,7.30
2023-04-15T08:24:05.338Z,7.40
2023-04-15T08:26:36.907Z,7.50
2023-04-15T08:29:06.732Z,7.60
2023-04-15T08:31:35.241Z,7.60
2023-04-15T08:34:03.784Z,7.30
2023-04-15T08:36:34.959Z,7.20
2023-04-15T08:39:05.104Z,7.20
2023-04-15T08:41:44.598Z,7.30
2023-04-15T08:44:15.513Z,7.40
2023-04-15T08:46:44.846Z,7.50
2023-04-15T08:49:14.277Z,7.40
2023-04-15T08:51:43.141Z,7.30
2023-04-15T08:54:12.186Z,7.10
2023-04-15T08:56:41.078Z,7.10
2023-04-15T08:59:11.308Z,7.30
2023-04-15T09:01:42.292Z,7.20
2023-04-15T09:04:12.590Z,7.40
2023-04-15T09:06:42.214Z,7.70
2023-04-15T09:09:10.734Z,7.70
2023-04-15T09:11:39.297Z,7.70
2023-04-15T09:14:07.738Z,7.80
2023-04-15T09:17:02.624Z,7.80
2023-04-15T09:19:31.799Z,7.60
2023-04-15T09:22:02.325Z,7.50
2023-04-15T09:24:45.220Z,7.60
2023-04-15T09:27:17.436Z,7.80
2023-04-15T09:29:45.680Z,8.10
2023-04-15T09:32:16.763Z,8.10
2023-04-15T09:34:45.957Z,8.20
2023-04-15T09:37:31.288Z,8.60
2023-04-15T09:40:00.734Z,8.90
2023-04-15T09:42:29.322Z,9.00
2023-04-15T09:44:57.605Z,8.80
2023-04-15T09:47:31.389Z,8.50
2023-04-15T09:50:00.468Z,8.40
2023-04-15T09:52:29.463Z,8.40
2023-04-15T09:54:59.467Z,8.20
2023-04-15T09:57:39.650Z,7.90
2023-04-15T10:00:11.537Z,7.70
2023-04-15T10:02:43.264Z,7.70
2023-04-15T10:05:15.195Z,7.80
2023-04-15T10:07:44.111Z,7.60
2023-04-15T10:10:16.817Z,7.40
2023-04-15T10:12:46.284Z,7.40
2023-04-15T10:15:17.950Z,7.40
2023-04-15T10:17:52.190Z,7.40
2023-04-15T10:20:22.096Z,7.60
2023-04-15T10:22:50.774Z,7.70
2023-04-15T10:25:19.648Z,7.70
2023-04-15T10:27:49.740Z,7.70
2023-04-15T10:30:19.696Z,7.70
2023-04-15T10:32:49.928Z,7.60
2023-04-15T10:35:23.148Z,7.60
2023-04-15T10:37:51.440Z,7.70
2023-04-15T10:40:28.185Z,7.90
2023-04-15T10:42:57.383Z,7.90
2023-04-15T10:45:28.367Z,8.20
2023-04-15T10:48:01.015Z,8.50
2023-04-15T10:50:32.833Z,8.70
2023-04-15T10:53:07.567Z,8.90
2023-04-15T10:55:36.149Z,8.90
2023-04-15T10:58:07.814Z,9.00
2023-04-15T11:00:40.022Z,9.20
2023-04-15T11:03:12.225Z,9.40
2023-04-15T11:05:53.898Z,9.70
2023-04-15T11:08:40.230Z,10.00
2023-04-15T11:11:08.550Z,10.20
2023-04-15T11:13:36.888Z,10.60
2023-04-15T11:16:05.374Z,11.20
2023-04-15T11:18:35.961Z,11.60
2023-04-15T11:21:06.573Z,11.80
2023-04-15T11:23:40.070Z,11.90
2023-04-15T11:26:12.007Z,11.80
2023-04-15T11:28:41.946Z,11.60
2023-04-15T11:31:13.210Z,11.20
2023-04-15T11:33:55.573Z,10.90
2023-04-15T11:36:28.303Z,10.50
2023-04-15T11:38:56.934Z,10.20
2023-04-15T11:41:25.409Z,10.20
2023-04-15T11:43:54.059Z,10.30
2023-04-15T11:46:23.142Z,10.40
2023-04-15T11:48:52.932Z,10.40
2023-04-15T11:51:22.833Z,10.00
2023-04-15T11:53:52.268Z,10.00
2023-04-15T11:56:22.194Z,9.80
2023-04-15T11:58:53.252Z,9.90
2023-04-15T12:01:32.927Z,9.80
2023-04-15T12:04:04.270Z,10.00
2023-04-15T12:06:40.297Z,9.80
2023-04-15T12:09:12.568Z,9.90
2023-04-15T12:11:46.255Z,10.40
2023-04-15T12:14:21.240Z,10.80
2023-04-15T12:16:51.786Z,11.10
2023-04-15T12:19:29.761Z,11.30
2023-04-15T12:22:03.395Z,11.20
2023-04-15T12:24:33.998Z,11.30
2023-04-15T12:27:04.691Z,11.40
2023-04-15T12:29:33.261Z,11.70
2023-04-15T12:32:09.232Z,11.90
2023-04-15T12:34:40.252Z,12.20
2023-04-15T12:37:10.897Z,12.50
2023-04-15T12:39:41.258Z,12.60
2023-04-15T12:42:10.921Z,11.30
2023-04-15T12:44:39.932Z,11.10
2023-04-15T12:47:12.611Z,10.20
2023-04-15T12:49:42.925Z,10.60
2023-04-15T12:52:11.534Z,11.00
2023-04-15T12:54:44.257Z,11.00
2023-04-15T12:57:12.730Z,11.10
2023-04-15T12:59:41.021Z,11.20
2023-04-15T13:02:09.702Z,11.30
2023-04-15T13:04:38.201Z,11.20
2023-04-15T13:07:08.258Z,10.30
2023-04-15T13:09:36.676Z,10.20
2023-04-15T13:12:05.576Z,10.60
2023-04-15T13:14:34.035Z,11.00
2023-04-15T13:17:04.297Z,11.30
2023-04-15T13:19:33.003Z,11.20
2023-04-15T13:22:01.468Z,10.90
2023-04-15T13:24:31.320Z,11.10
2023-04-15T13:26:59.712Z,11.30
2023-04-15T13:29:28.063Z,11.50
2023-04-15T13:31:56.798Z,11.70
2023-04-15T13:34:25.468Z,11.60
2023-04-15T13:36:53.854Z,11.10
2023-04-15T13:39:22.203Z,11.10
2023-04-15T13:41:54.841Z,11.00
2023-04-15T13:44:23.296Z,10.90
2023-04-15T13:46:51.647Z,11.10
2023-04-15T13:49:20.765Z,11.20
2023-04-15T13:51:49.265Z,11.20
2023-04-15T13:54:17.478Z,11.20
2023-04-15T13:56:48.676Z,11.30
2023-04-15T13:59:18.521Z,11.20
2023-04-15T14:01:46.842Z,11.20
2023-04-15T14:04:15.732Z,11.20
2023-04-15T14:06:50.784Z,11.10
2023-04-15T14:09:19.274Z,11.20
2023-04-15T14:11:50.477Z,11.30
2023-04-15T14:14:20.331Z,11.30
2023-04-15T14:16:49.096Z,11.40
2023-04-15T14:19:17.400Z,11.50
2023-04-15T14:21:45.815Z,11.60
2023-04-15T14:24:14.101Z,11.60
2023-04-15T14:26:43.935Z,11.60
2023-04-15T14:29:12.423Z,11.30
2023-04-15T14:31:42.195Z,11.30
2023-04-15T14:34:30.452Z,11.40
2023-04-15T14:37:02.203Z,11.20
2023-04-15T14:39:30.596Z,10.90
2023-04-15T14:41:58.830Z,10.80
2023-04-15T14:44:27.023Z,10.80
2023-04-15T14:47:00.876Z,10.80
2023-04-15T14:49:29.102Z,10.70
2023-04-15T14:51:57.316Z,10.60
2023-04-15T14:54:31.198Z,10.60
2023-04-15T14:56:59.483Z,10.40
2023-04-15T14:59:30.551Z,10.30
2023-04-15T15:02:00.378Z,10.30
2023-04-15T15:04:29.042Z,10.20
2023-04-15T15:07:00.431Z,10.10
2023-04-15T15:09:29.130Z,10.20
2023-04-15T15:11:58.105Z,10.20
2023-04-15T15:14:27.021Z,10.30
2023-04-15T15:16:55.616Z,10.40
2023-04-15T15:19:25.393Z,10.20
2023-04-15T15:21:53.785Z,10.20
2023-04-15T15:24:22.263Z,10.30
2023-04-15T15:26:53.878Z,10.10
2023-04-15T15:29:22.144Z,10.10
2023-04-15T15:31:50.761Z,10.10
2023-04-15T15:34:19.368Z,9.90
2023-04-15T15:36:53.274Z,9.90
2023-04-15T15:39:21.809Z,9.90
2023-04-15T15:41:50.132Z,9.80
2023-04-15T15:44:21.435Z,9.80
2023-04-15T15:46:51.180Z,9.80
2023-04-15T15:49:22.615Z,9.80
2023-04-15T15:51:52.428Z,9.70
2023-04-15T15:54:20.868Z,9.60
2023-04-15T15:56:55.629Z,9.40
2023-04-15T15:59:24.026Z,9.40
2023-04-15T16:01:54.905Z,9.30
2023-04-15T16:04:23.405Z,9.30
2023-04-15T16:06:53.601Z,9.30
2023-04-15T16:09:21.836Z,9.30
2023-04-15T16:11:50.348Z,9.20
2023-04-15T16:14:18.773Z,9.10
2023-04-15T16:16:59.883Z,9.10
2023-04-15T16:19:28.382Z,9.00
2023-04-15T16:21:58.349Z,9.00
2023-04-15T16:24:27.528Z,9.00
2023-04-15T16:26:58.492Z,8.90
2023-04-15T16:29:26.952Z,8.90
2023-04-15T16:31:56.554Z,8.90
2023-04-15T16:34:24.935Z,8.90
2023-04-15T16:36:53.407Z,8.90
2023-04-15T16:39:24.008Z,8.90
2023-04-15T16:41:52.363Z,8.90
2023-04-15T16:44:20.897Z,8.90
2023-04-15T16:46:49.110Z,8.80
2023-04-15T16:49:17.335Z,8.80
2023-04-15T16:51:45.592Z,8.80
2023-04-15T16:54:13.856Z,8.70
2023-04-15T16:56:43.517Z,8.70
2023-04-15T16:59:11.855Z,8.70
2023-04-15T17:01:44.404Z,8.70
2023-04-15T17:04:13.072Z,8.70
2023-04-15T17:06:41.679Z,8.70
2023-04-15T17:09:10.343Z,8.60
2023-04-15T17:11:45.559Z,8.60
2023-04-15T17:14:17.894Z,8.50
2023-04-15T17:16:46.381Z,8.50
2023-04-15T17:19:23.568Z,8.40
2023-04-15T17:21:54.823Z,8.40
2023-04-15T17:24:23.393Z,8.30
2023-04-15T17:26:51.686Z,8.30
2023-04-15T17:29:21.346Z,8.30
2023-04-15T17:31:52.801Z,8.20
2023-04-15T17:34:21.377Z,8.20
2023-04-15T17:36:53.629Z,8.00
2023-04-15T17:39:22.098Z,7.90
2023-04-15T17:41:50.512Z,7.80
2023-04-15T17:44:20.527Z,7.70
2023-04-15T17:46:49.025Z,7.50
2023-04-15T17:49:17.407Z,7.40
2023-04-15T17:51:46.710Z,7.30
2023-04-15T17:54:15.149Z,7.20
2023-04-15T17:56:43.613Z,7.10
2023-04-15T17:59:11.977Z,7.00
2023-04-15T18:01:42.573Z,6.90
2023-04-15T18:04:11.328Z,6.80
2023-04-15T18:06:40.205Z,6.70
2023-04-15T18:09:11.831Z,6.70
2023-04-15T18:11:48.458Z,6.60
2023-04-15T18:14:30.674Z,6.50
2023-04-15T18:17:03.652Z,6.40
2023-04-15T18:19:32.126Z,6.20
2023-04-15T18:22:00.895Z,6.20
2023-04-15T18:24:29.873Z,6.10
2023-04-15T18:26:59.159Z,6.00
2023-04-15T18:29:34.084Z,5.90
2023-04-15T18:32:03.874Z,5.90
2023-04-15T18:34:38.019Z,5.70
2023-04-15T18:37:06.512Z,5.70
2023-04-15T18:39:34.799Z,5.60
2023-04-15T18:42:06.138Z,5.50
2023-04-15T18:44:34.503Z,5.50
2023-04-15T18:47:04.615Z,5.50
2023-04-15T18:49:34.233Z,5.50
2023-04-15T18:52:02.528Z,5.50
2023-04-15T18:54:30.885Z,5.50
2023-04-15T18:56:59.476Z,5.50
2023-04-15T18:59:30.501Z,5.50
2023-04-15T19:01:59.654Z,5.50
2023-04-15T19:04:29.992Z,5.50
2023-04-15T19:06:59.957Z,5.50
2023-04-15T19:09:29.421Z,5.40
2023-04-15T19:11:57.928Z,5.40
2023-04-15T19:14:29.064Z,5.30
2023-04-15T19:16:57.713Z,5.30
2023-04-15T19:19:26.272Z,5.20
2023-04-15T19:21:58.801Z,5.20
2023-04-15T19:24:27.121Z,5.10
2023-04-15T19:26:57.218Z,5.10
2023-04-15T19:29:26.144Z,5.10
2023-04-15T19:31:54.571Z,5.00
2023-04-15T19:34:22.896Z,5.00
2023-04-15T19:36:58.704Z,5.00
2023-04-15T19:39:32.606Z,5.10
2023-04-15T19:42:02.944Z,5.10
2023-04-15T19:44:31.283Z,5.10
2023-04-15T19:46:59.603Z,5.00
2023-04-15T19:49:27.896Z,5.00
2023-04-15T19:51:57.800Z,5.00
2023-04-15T19:54:26.520Z,5.00
2023-04-15T19:56:57.644Z,4.90
2023-04-15T19:59:26.032Z,4.90
2023-04-15T20:01:54.461Z,4.90
2023-04-15T20:04:23.016Z,4.90
2023-04-15T20:06:51.552Z,4.90
2023-04-15T20:09:21.348Z,4.90
2023-04-15T20:12:46.058Z,4.90
2023-04-15T20:14:37.837Z,4.80
2023-04-15T20:17:06.086Z,4.80
2023-04-15T20:19:34.364Z,4.70
2023-04-15T20:22:02.609Z,4.70
2023-04-15T20:24:35.100Z,4.70
2023-04-15T20:27:03.978Z,4.70
2023-04-15T20:29:32.184Z,4.70
2023-04-15T20:32:00.550Z,4.70
2023-04-15T20:34:28.899Z,4.60
2023-04-15T20:36:57.153Z,4.60
2023-04-15T20:39:25.475Z,4.60
2023-04-15T20:41:56.042Z,4.50
2023-04-15T20:44:27.024Z,4.50
2023-04-15T20:46:55.278Z,4.50
2023-04-15T20:49:23.788Z,4.50
2023-04-15T20:51:52.062Z,4.40
2023-04-15T20:54:23.376Z,4.40
2023-04-15T20:56:51.603Z,4.40
2023-04-15T20:59:21.546Z,4.30
2023-04-15T21:01:49.844Z,4.40
2023-04-15T21:04:24.472Z,4.30
2023-04-15T21:06:53.182Z,4.30
2023-04-15T21:09:21.595Z,4.30
2023-04-15T21:14:23.452Z,4.30
2023-04-15T21:16:51.928Z,4.30
2023-04-15T21:19:20.316Z,4.30
2023-04-15T21:21:48.608Z,4.20
2023-04-15T21:24:17.011Z,4.20
2023-04-15T21:26:45.220Z,4.20
2023-04-15T21:29:13.772Z,4.20
2023-04-15T21:31:43.802Z,4.20
2023-04-15T21:34:12.653Z,4.20
2023-04-15T21:36:40.936Z,4.20
2023-04-15T21:39:09.293Z,4.20
2023-04-15T21:41:40.919Z,4.10
2023-04-15T21:44:09.258Z,4.20
2023-04-15T21:46:37.624Z,4.20
2023-04-15T21:49:09.185Z,4.10
2023-04-15T21:51:37.557Z,4.10
2023-04-15T21:54:06.043Z,4.20
2023-04-15T21:56:34.440Z,4.10
2023-04-15T21:59:02.840Z,4.10
2023-04-15T22:01:31.323Z,4.00
2023-04-15T22:03:59.840Z,4.00
2023-04-15T22:06:29.844Z,4.00
2023-04-15T22:08:58.125Z,4.00
2023-04-15T22:11:28.434Z,4.00
2023-04-15T22:13:57.797Z,3.90
2023-04-15T22:16:26.787Z,3.90
2023-04-15T22:18:55.730Z,3.90
2023-04-15T22:21:24.202Z,3.90
2023-04-15T22:24:32.769Z,3.80
2023-04-15T22:26:43.024Z,3.80
2023-04-15T22:29:11.286Z,3.80
2023-04-15T22:31:39.762Z,3.70
2023-04-15T22:34:09.418Z,3.70
2023-04-15T22:36:38.139Z,3.60
2023-04-15T22:39:07.974Z,3.50
2023-04-15T22:41:36.636Z,3.40
2023-04-15T22:44:05.016Z,3.40
2023-04-15T22:46:33.421Z,3.30
2023-04-15T22:49:02.330Z,3.20
2023-04-15T22:51:31.593Z,3.10
2023-04-15T22:53:59.844Z,3.10
2023-04-15T22:56:29.731Z,3.00
2023-04-15T22:58:58.039Z,2.90
2023-04-15T23:01:32.450Z,2.90
2023-04-15T23:04:04.668Z,2.80
2023-04-15T23:06:38.815Z,2.70
2023-04-15T23:09:07.660Z,2.70
2023-04-15T23:11:39.051Z,2.60
2023-04-15T23:14:07.553Z,2.50
2023-04-15T23:16:35.988Z,2.50
2023-04-15T23:19:04.472Z,2.40
2023-04-15T23:21:32.840Z,2.60
2023-04-15T23:24:01.247Z,2.90
2023-04-15T23:26:29.743Z,2.80
2023-04-15T23:28:59.513Z,2.70
2023-04-15T23:31:28.050Z,2.60
2023-04-15T23:33:56.415Z,2.50
2023-04-15T23:36:24.922Z,2.50
2023-04-15T23:38:53.518Z,2.40
2023-04-15T23:41:22.191Z,2.40
2023-04-15T23:43:50.990Z,2.30
2023-04-15T23:46:21.043Z,2.20
2023-04-15T23:48:49.799Z,2.10
2023-04-15T23:51:21.764Z,2.00
2023-04-15T23:53:52.571Z,1.90
2023-04-15T23:56:24.061Z,1.80
2023-04-15T23:58:52.757Z,1.70
